createdAt,value
2018-07-16T00:02:23.069Z,101348.04
2018-07-16T00:04:50.079Z,101343.58
2018-07-16T00:07:17.113Z,101347.38
2018-07-16T00:09:44.178Z,101346.71
2018-07-16T00:12:11.213Z,101344.03
2018-07-16T00:14:38.908Z,101340.38
2018-07-16T00:17:05.884Z,101335.91
2018-07-16T00:19:32.904Z,101337.72
2018-07-16T00:22:00.474Z,101340.50
2018-07-16T00:24:27.523Z,101343.64
2018-07-16T00:26:54.864Z,101347.92
2018-07-16T00:29:22.057Z,101338.96
2018-07-16T00:31:49.348Z,101343.56
2018-07-16T00:34:16.641Z,101344.70
2018-07-16T00:36:44.324Z,101338.39
2018-07-16T00:39:11.312Z,101333.76
2018-07-16T00:41:38.447Z,101338.39
2018-07-16T00:44:05.677Z,101336.05
2018-07-16T00:46:32.986Z,101332.56
2018-07-16T00:49:00.069Z,101332.20
2018-07-16T00:51:27.253Z,101338.64
2018-07-16T00:53:54.277Z,101336.48
2018-07-16T00:56:21.300Z,101326.23
2018-07-16T00:58:48.217Z,101331.48
2018-07-16T01:01:15.246Z,101335.76
2018-07-16T01:03:42.398Z,101336.41
2018-07-16T01:06:09.373Z,101335.91
2018-07-16T01:08:36.369Z,101336.22
2018-07-16T01:11:03.482Z,101335.38
2018-07-16T01:13:30.686Z,101338.68
2018-07-16T01:15:57.701Z,101334.19
2018-07-16T01:18:24.697Z,101336.16
2018-07-16T01:20:51.680Z,101334.17
2018-07-16T01:23:19.225Z,101338.63
2018-07-16T01:25:46.235Z,101334.94
2018-07-16T01:28:13.213Z,101343.53
2018-07-16T01:30:40.197Z,101341.67
2018-07-16T01:33:07.181Z,101336.36
2018-07-16T01:35:34.341Z,101337.02
2018-07-16T01:38:01.339Z,101339.96
2018-07-16T01:40:28.321Z,101338.45
2018-07-16T01:42:55.302Z,101336.46
2018-07-16T01:45:23.109Z,101339.22
2018-07-16T01:47:50.069Z,101333.09
2018-07-16T01:50:17.200Z,101327.27
2018-07-16T01:52:44.182Z,101327.92
2018-07-16T01:55:11.229Z,101326.41
2018-07-16T01:57:38.185Z,101320.10
2018-07-16T02:00:05.221Z,101321.72
2018-07-16T02:02:32.209Z,101318.73
2018-07-16T02:04:59.317Z,101317.05
2018-07-16T02:07:26.325Z,101318.05
2018-07-16T02:09:53.388Z,101317.52
2018-07-16T02:12:20.397Z,101320.32
2018-07-16T02:14:47.426Z,101315.34
2018-07-16T02:17:14.398Z,101309.02
2018-07-16T02:19:41.396Z,101314.95
2018-07-16T02:22:08.352Z,101307.68
2018-07-16T02:24:35.320Z,101303.17
2018-07-16T02:27:02.305Z,101301.34
2018-07-16T02:29:29.593Z,101297.19
2018-07-16T02:31:56.602Z,101303.12
2018-07-16T02:34:23.897Z,101302.58
2018-07-16T02:36:50.889Z,101302.75
2018-07-16T02:39:17.860Z,101307.33
2018-07-16T02:41:44.837Z,101306.81
2018-07-16T02:44:12.456Z,101304.81
2018-07-16T02:46:39.457Z,101304.11
2018-07-16T02:49:06.490Z,101307.40
2018-07-16T02:51:33.480Z,101310.20
2018-07-16T02:54:00.525Z,101309.72
2018-07-16T02:56:27.655Z,101310.69
2018-07-16T02:58:54.625Z,101306.53
2018-07-16T03:01:21.621Z,101306.18
2018-07-16T03:03:48.658Z,101301.87
2018-07-16T03:06:16.633Z,101301.34
2018-07-16T03:08:43.613Z,101297.20
2018-07-16T03:11:10.646Z,101300.84
2018-07-16T03:13:37.665Z,101294.36
2018-07-16T03:16:04.685Z,101300.64
2018-07-16T03:18:31.672Z,101306.77
2018-07-16T03:20:58.702Z,101303.77
2018-07-16T03:23:25.761Z,101302.29
2018-07-16T03:25:52.789Z,101301.32
2018-07-16T03:28:19.757Z,101304.31
2018-07-16T03:30:47.022Z,101298.68
2018-07-16T03:33:14.000Z,101300.36
2018-07-16T03:35:41.289Z,101297.06
2018-07-16T03:38:08.281Z,101295.27
2018-07-16T03:40:35.282Z,101299.06
2018-07-16T03:43:02.292Z,101294.62
2018-07-16T03:45:29.295Z,101302.38
2018-07-16T03:47:56.319Z,101297.58
2018-07-16T03:50:23.582Z,101305.02
2018-07-16T03:52:50.608Z,101306.53
2018-07-16T03:55:17.689Z,101307.02
2018-07-16T03:57:44.701Z,101313.69
2018-07-16T04:00:11.901Z,101321.28
2018-07-16T04:02:38.953Z,101314.55
2018-07-16T04:05:05.958Z,101313.90
2018-07-16T04:07:32.984Z,101315.25
2018-07-16T04:10:00.027Z,101316.47
2018-07-16T04:12:27.071Z,101315.34
2018-07-16T04:14:54.266Z,101309.27
2018-07-16T04:17:21.290Z,101312.42
2018-07-16T04:19:48.493Z,101309.35
2018-07-16T04:22:16.106Z,101307.41
2018-07-16T04:24:43.088Z,101306.45
2018-07-16T04:27:10.187Z,101313.09
2018-07-16T04:29:37.188Z,101307.88
2018-07-16T04:32:04.193Z,101300.81
2018-07-16T04:34:31.195Z,101302.99
2018-07-16T04:36:58.173Z,101311.30
2018-07-16T04:39:25.181Z,101302.89
2018-07-16T04:41:52.266Z,101306.42
2018-07-16T04:44:19.293Z,101302.17
2018-07-16T04:46:46.317Z,101296.41
2018-07-16T04:49:13.313Z,101295.93
2018-07-16T04:51:40.321Z,101300.61
2018-07-16T04:54:07.365Z,101299.97
2018-07-16T04:56:34.373Z,101298.52
2018-07-16T04:59:01.466Z,101303.20
2018-07-16T05:01:28.475Z,101297.61
2018-07-16T05:03:55.473Z,101309.22
2018-07-16T05:06:22.631Z,101299.33
2018-07-16T05:08:49.581Z,101302.48
2018-07-16T05:11:17.297Z,101299.88
2018-07-16T05:13:44.264Z,101304.58
2018-07-16T05:16:11.225Z,101300.64
2018-07-16T05:18:38.237Z,101302.14
2018-07-16T05:21:05.261Z,101299.03
2018-07-16T05:23:32.257Z,101292.09
2018-07-16T05:25:59.297Z,101291.91
2018-07-16T05:28:26.332Z,101297.72
2018-07-16T05:30:53.289Z,101295.59
2018-07-16T05:33:20.329Z,101288.98
2018-07-16T05:35:47.592Z,101292.80
2018-07-16T05:38:14.627Z,101292.47
2018-07-16T05:40:41.658Z,101291.64
2018-07-16T05:43:08.657Z,101296.12
2018-07-16T05:45:35.761Z,101302.79
2018-07-16T05:48:03.117Z,101301.61
2018-07-16T05:50:30.076Z,101300.78
2018-07-16T05:52:57.105Z,101297.47
2018-07-16T05:55:24.147Z,101292.66
2018-07-16T05:57:51.161Z,101290.98
2018-07-16T06:00:18.140Z,101291.61
2018-07-16T06:02:45.132Z,101288.30
2018-07-16T06:05:12.321Z,101286.30
2018-07-16T06:07:39.306Z,101286.78
2018-07-16T06:10:06.335Z,101284.08
2018-07-16T06:12:33.337Z,101279.58
2018-07-16T06:15:00.353Z,101280.73
2018-07-16T06:17:27.344Z,101276.88
2018-07-16T06:19:54.390Z,101276.66
2018-07-16T06:22:21.394Z,101279.27
2018-07-16T06:24:48.361Z,101273.59
2018-07-16T06:27:15.417Z,101272.71
2018-07-16T06:29:43.257Z,101281.14
2018-07-16T06:32:10.474Z,101275.78
2018-07-16T06:34:37.874Z,101276.07
2018-07-16T06:37:05.106Z,101274.01
2018-07-16T06:39:32.152Z,101266.77
2018-07-16T06:41:59.126Z,101260.89
2018-07-16T06:44:26.157Z,101258.47
2018-07-16T06:46:53.497Z,101253.78
2018-07-16T06:49:20.522Z,101258.01
2018-07-16T06:51:47.540Z,101259.60
2018-07-16T06:54:14.744Z,101256.67
2018-07-16T06:56:41.757Z,101255.70
2018-07-16T06:59:08.772Z,101256.59
2018-07-16T07:01:35.830Z,101264.53
2018-07-16T07:04:03.360Z,101261.31
2018-07-16T07:06:30.677Z,101269.74
2018-07-16T07:08:57.652Z,101265.66
2018-07-16T07:11:24.632Z,101265.93
2018-07-16T07:13:51.648Z,101257.08
2018-07-16T07:16:19.017Z,101255.18
2018-07-16T07:18:46.029Z,101259.95
2018-07-16T07:21:13.170Z,101258.02
2018-07-16T07:23:40.157Z,101253.52
2018-07-16T07:26:07.144Z,101252.78
2018-07-16T07:28:34.166Z,101248.01
2018-07-16T07:31:01.170Z,101252.36
2018-07-16T07:33:28.161Z,101247.11
2018-07-16T07:35:55.153Z,101241.20
2018-07-16T07:38:22.253Z,101247.13
2018-07-16T07:40:49.685Z,101246.42
2018-07-16T07:43:16.813Z,101247.88
2018-07-16T07:45:43.761Z,101238.34
2018-07-16T07:48:10.744Z,101239.80
2018-07-16T07:50:37.716Z,101239.17
2018-07-16T07:53:04.905Z,101243.80
2018-07-16T07:55:31.953Z,101243.59
2018-07-16T07:57:59.972Z,101240.66
2018-07-16T08:00:26.974Z,101238.61
2018-07-16T08:02:54.001Z,101238.36
2018-07-16T08:05:21.516Z,101238.27
2018-07-16T08:07:48.887Z,101228.20
2018-07-16T08:10:15.999Z,101233.33
2018-07-16T08:12:42.984Z,101226.77
2018-07-16T08:15:10.001Z,101233.30
2018-07-16T08:17:37.168Z,101221.55
2018-07-16T08:20:04.217Z,101221.28
2018-07-16T08:22:31.221Z,101219.22
2018-07-16T08:24:58.228Z,101213.40
2018-07-16T08:27:25.278Z,101214.78
2018-07-16T08:29:52.294Z,101215.63
2018-07-16T08:32:19.320Z,101212.58
2018-07-16T08:34:46.310Z,101215.98
2018-07-16T08:37:13.341Z,101212.74
2018-07-16T08:39:40.365Z,101217.30
2018-07-16T08:42:07.369Z,101221.03
2018-07-16T08:44:34.554Z,101215.07
2018-07-16T08:47:01.534Z,101210.66
2018-07-16T08:49:28.528Z,101205.72
2018-07-16T08:51:55.571Z,101212.73
2018-07-16T08:54:22.625Z,101214.39
2018-07-16T08:56:49.689Z,101207.09
2018-07-16T08:59:16.731Z,101209.87
2018-07-16T09:01:43.761Z,101214.02
2018-07-16T09:04:10.788Z,101217.42
2018-07-16T09:06:37.729Z,101217.52
2018-07-16T09:09:04.861Z,101221.03
2018-07-16T09:11:31.987Z,101220.86
2018-07-16T09:13:59.004Z,101217.98
2018-07-16T09:16:25.969Z,101218.91
2018-07-16T09:18:52.935Z,101218.28
2018-07-16T09:21:19.949Z,101219.52
2018-07-16T09:23:47.013Z,101213.62
2018-07-16T09:26:14.850Z,101206.63
2018-07-16T09:28:41.833Z,101211.87
2018-07-16T09:31:08.820Z,101211.45
2018-07-16T09:33:36.019Z,101208.97
2018-07-16T09:36:03.166Z,101204.54
2018-07-16T09:38:30.232Z,101213.09
2018-07-16T09:40:57.157Z,101207.00
2018-07-16T09:43:24.845Z,101210.90
2018-07-16T09:45:51.849Z,101205.38
2018-07-16T09:48:18.845Z,101199.45
2018-07-16T09:50:45.945Z,101204.17
2018-07-16T09:53:12.945Z,101201.99
2018-07-16T09:55:39.969Z,101204.20
2018-07-16T09:58:06.949Z,101194.33
2018-07-16T10:00:39.276Z,101196.11
2018-07-16T10:03:06.289Z,101194.97
2018-07-16T10:05:33.473Z,101191.91
2018-07-16T10:08:00.432Z,101189.25
2018-07-16T10:10:27.424Z,101188.34
2018-07-16T10:12:54.441Z,101189.09
2018-07-16T10:15:21.444Z,101185.48
2018-07-16T10:17:48.468Z,101184.49
2018-07-16T10:20:15.492Z,101185.09
2018-07-16T10:22:42.685Z,101181.45
2018-07-16T10:25:09.901Z,101174.50
2018-07-16T10:27:36.925Z,101183.70
2018-07-16T10:30:04.090Z,101181.30
2018-07-16T10:32:31.085Z,101176.91
2018-07-16T10:34:58.077Z,101172.13
2018-07-16T10:37:25.812Z,101173.03
2018-07-16T10:39:52.805Z,101167.58
2018-07-16T10:42:19.809Z,101177.89
2018-07-16T10:44:46.885Z,101175.52
2018-07-16T10:47:13.857Z,101171.02
2018-07-16T10:49:41.498Z,101162.75
2018-07-16T10:52:08.526Z,101173.88
2018-07-16T10:54:35.541Z,101163.16
2018-07-16T10:57:02.557Z,101158.95
2018-07-16T10:59:29.540Z,101158.14
2018-07-16T11:01:56.686Z,101150.83
2018-07-16T11:04:23.770Z,101153.59
2018-07-16T11:06:50.837Z,101152.81
2018-07-16T11:09:17.837Z,101150.48
2018-07-16T11:11:44.789Z,101142.34
2018-07-16T11:14:11.788Z,101148.38
2018-07-16T11:16:38.829Z,101149.69
2018-07-16T11:19:05.820Z,101140.08
2018-07-16T11:21:32.841Z,101140.14
2018-07-16T11:23:59.813Z,101144.02
2018-07-16T11:26:26.789Z,101142.20
2018-07-16T11:28:53.816Z,101137.41
2018-07-16T11:31:20.833Z,101132.93
2018-07-16T11:33:47.821Z,101133.55
2018-07-16T11:36:14.829Z,101132.34
2018-07-16T11:38:41.816Z,101130.97
2018-07-16T11:41:08.797Z,101132.37
2018-07-16T11:43:35.761Z,101128.98
2018-07-16T11:46:02.798Z,101126.79
2018-07-16T11:48:29.808Z,101129.22
2018-07-16T11:50:56.837Z,101126.22
2018-07-16T11:53:23.877Z,101129.43
2018-07-16T11:55:51.141Z,101128.34
2018-07-16T11:58:18.176Z,101125.69
2018-07-16T12:00:45.194Z,101122.38
2018-07-16T12:03:12.162Z,101121.92
2018-07-16T12:05:39.128Z,101115.03
2018-07-16T12:08:06.124Z,101112.67
2018-07-16T12:10:33.320Z,101106.27
2018-07-16T12:13:00.294Z,101099.73
2018-07-16T12:15:27.348Z,101102.19
2018-07-16T12:17:55.060Z,101101.69
2018-07-16T12:20:22.072Z,101103.62
2018-07-16T12:22:49.057Z,101097.48
2018-07-16T12:25:16.124Z,101100.17
2018-07-16T12:27:43.141Z,101092.93
2018-07-16T12:30:10.281Z,101085.02
2018-07-16T12:32:37.298Z,101080.53
2018-07-16T12:35:04.528Z,101083.05
2018-07-16T12:37:31.678Z,101073.95
2018-07-16T12:39:58.649Z,101078.30
2018-07-16T12:42:25.760Z,101080.27
2018-07-16T12:44:52.742Z,101077.13
2018-07-16T12:47:19.820Z,101076.96
2018-07-16T12:49:46.853Z,101071.20
2018-07-16T12:52:13.877Z,101066.12
2018-07-16T12:54:40.973Z,101067.13
2018-07-16T12:57:07.969Z,101069.48
2018-07-16T12:59:34.929Z,101064.46
2018-07-16T13:02:01.904Z,101068.70
2018-07-16T13:04:28.865Z,101063.66
2018-07-16T13:06:55.881Z,101059.59
2018-07-16T13:09:22.873Z,101060.00
2018-07-16T13:11:49.909Z,101048.73
2018-07-16T13:14:16.934Z,101056.23
2018-07-16T13:16:43.946Z,101049.48
2018-07-16T13:19:10.922Z,101036.64
2018-07-16T13:21:37.941Z,101041.73
2018-07-16T13:24:04.970Z,101036.49
2018-07-16T13:26:31.961Z,101036.87
2018-07-16T13:28:59.027Z,101033.75
2018-07-16T13:31:26.009Z,101026.46
2018-07-16T13:33:52.985Z,101021.04
2018-07-16T13:36:20.066Z,101018.95
2018-07-16T13:38:47.045Z,101022.12
2018-07-16T13:41:14.019Z,101017.69
2018-07-16T13:43:41.881Z,101022.98
2018-07-16T13:46:08.957Z,101019.53
2018-07-16T13:48:35.996Z,101011.59
2018-07-16T13:51:03.001Z,101012.86
2018-07-16T13:53:30.018Z,101011.94
2018-07-16T13:55:57.705Z,101016.41
2018-07-16T13:58:24.692Z,101009.68
2018-07-16T14:00:51.681Z,101004.50
2018-07-16T14:03:18.725Z,101000.42
2018-07-16T14:05:45.789Z,100994.38
2018-07-16T14:08:12.869Z,100994.52
2018-07-16T14:10:39.861Z,100986.70
2018-07-16T14:13:07.013Z,100982.81
2018-07-16T14:15:34.178Z,100982.97
2018-07-16T14:18:02.034Z,100983.64
2018-07-16T14:20:29.085Z,100983.69
2018-07-16T14:22:56.089Z,100982.14
2018-07-16T14:25:24.377Z,100975.61
2018-07-16T14:27:51.399Z,100981.47
2018-07-16T14:30:18.359Z,100980.02
2018-07-16T14:32:45.381Z,100975.35
2018-07-16T14:35:12.451Z,100968.31
2018-07-16T14:37:39.505Z,100973.14
2018-07-16T14:40:06.641Z,100965.03
2018-07-16T14:42:33.685Z,100959.53
2018-07-16T14:45:00.804Z,100963.48
2018-07-16T14:47:28.093Z,100956.13
2018-07-16T14:49:55.449Z,100960.59
2018-07-16T14:52:22.473Z,100964.06
2018-07-16T14:54:49.556Z,100958.22
2018-07-16T14:57:16.808Z,100962.98
2018-07-16T14:59:43.777Z,100967.80
2018-07-16T15:02:10.817Z,100958.52
2018-07-16T15:04:37.778Z,100957.53
2018-07-16T15:07:04.797Z,100958.28
2018-07-16T15:09:31.813Z,100953.17
2018-07-16T15:11:59.041Z,100947.31
2018-07-16T15:14:26.288Z,100956.84
2018-07-16T15:16:54.001Z,100950.12
2018-07-16T15:19:20.988Z,100957.53
2018-07-16T15:21:48.101Z,100955.67
2018-07-16T15:24:15.109Z,100951.63
2018-07-16T15:26:42.096Z,100950.28
2018-07-16T15:29:09.088Z,100951.69
2018-07-16T15:31:36.049Z,100950.28
2018-07-16T15:34:03.124Z,100943.03
2018-07-16T15:36:30.085Z,100943.86
2018-07-16T15:38:57.068Z,100940.23
2018-07-16T15:41:24.109Z,100941.00
2018-07-16T15:43:51.037Z,100939.76
2018-07-16T15:46:18.249Z,100938.72
2018-07-16T15:48:45.235Z,100943.22
2018-07-16T15:51:12.337Z,100940.99
2018-07-16T15:53:39.402Z,100932.92
2018-07-16T15:56:06.489Z,100932.13
2018-07-16T15:58:33.525Z,100931.30
2018-07-16T16:01:00.585Z,100932.29
2018-07-16T16:03:27.619Z,100927.32
2018-07-16T16:05:54.585Z,100928.42
2018-07-16T16:08:21.579Z,100930.59
2018-07-16T16:10:48.550Z,100926.03
2018-07-16T16:13:15.539Z,100918.20
2018-07-16T16:15:42.525Z,100922.95
2018-07-16T16:18:09.612Z,100923.93
2018-07-16T16:20:36.585Z,100925.58
2018-07-16T16:23:03.636Z,100920.47
2018-07-16T16:25:30.618Z,100920.12
2018-07-16T16:27:57.602Z,100916.56
2018-07-16T16:30:24.654Z,100918.07
2018-07-16T16:32:51.723Z,100911.20
2018-07-16T16:35:19.225Z,100910.21
2018-07-16T16:37:46.229Z,100906.03
2018-07-16T16:40:13.868Z,100910.42
2018-07-16T16:42:40.854Z,100910.94
2018-07-16T16:45:09.127Z,100906.38
2018-07-16T16:47:36.150Z,100912.29
2018-07-16T16:50:03.449Z,100913.23
2018-07-16T16:52:30.670Z,100910.02
2018-07-16T16:54:57.740Z,100908.36
2018-07-16T16:57:24.738Z,100908.67
2018-07-16T16:59:51.758Z,100907.84
2018-07-16T17:02:18.757Z,100903.80
2018-07-16T17:04:46.469Z,100907.63
2018-07-16T17:07:13.456Z,100900.73
2018-07-16T17:09:40.592Z,100910.10
2018-07-16T17:12:08.426Z,100906.59
2018-07-16T17:14:35.477Z,100908.29
2018-07-16T17:17:02.757Z,100900.05
2018-07-16T17:19:29.758Z,100899.23
2018-07-16T17:21:56.731Z,100899.02
2018-07-16T17:24:23.787Z,100900.05
2018-07-16T17:26:50.797Z,100903.81
2018-07-16T17:29:17.813Z,100893.52
2018-07-16T17:31:44.789Z,100903.41
2018-07-16T17:34:11.784Z,100902.36
2018-07-16T17:36:38.773Z,100904.50
2018-07-16T17:39:07.309Z,100903.09
2018-07-16T17:41:34.277Z,100894.39
2018-07-16T17:44:01.565Z,100906.09
2018-07-16T17:46:28.549Z,100905.05
2018-07-16T17:48:55.598Z,100903.70
2018-07-16T17:51:22.586Z,100913.64
2018-07-16T17:53:49.598Z,100914.47
2018-07-16T17:56:16.821Z,100909.94
2018-07-16T17:58:43.781Z,100915.37
2018-07-16T18:01:10.848Z,100913.42
2018-07-16T18:03:37.800Z,100919.80
2018-07-16T18:06:04.818Z,100920.38
2018-07-16T18:08:31.809Z,100921.30
2018-07-16T18:10:58.777Z,100922.53
2018-07-16T18:13:26.117Z,100927.62
2018-07-16T18:15:53.112Z,100920.31
2018-07-16T18:18:23.005Z,100920.06
2018-07-16T18:20:50.013Z,100926.90
2018-07-16T18:23:17.022Z,100928.59
2018-07-16T18:25:44.045Z,100923.30
2018-07-16T18:28:11.045Z,100932.88
2018-07-16T18:30:38.065Z,100932.88
2018-07-16T18:33:05.106Z,100924.56
2018-07-16T18:35:32.198Z,100934.64
2018-07-16T18:37:59.161Z,100937.56
2018-07-16T18:40:26.188Z,100928.72
2018-07-16T18:42:53.179Z,100939.66
2018-07-16T18:45:20.513Z,100936.69
2018-07-16T18:47:47.615Z,100940.73
2018-07-16T18:50:14.642Z,100946.22
2018-07-16T18:52:41.677Z,100950.38
2018-07-16T18:55:08.695Z,100946.81
2018-07-16T18:57:35.676Z,100955.06
2018-07-16T19:00:03.085Z,100955.61
2018-07-16T19:02:30.071Z,100955.05
2018-07-16T19:04:57.074Z,100955.08
2018-07-16T19:07:24.065Z,100967.34
2018-07-16T19:09:51.671Z,100967.80
2018-07-16T19:12:18.740Z,100957.72
2018-07-16T19:14:46.181Z,100967.71
2018-07-16T19:17:13.261Z,100971.50
2018-07-16T19:19:40.350Z,100972.84
2018-07-16T19:22:07.397Z,100975.72
2018-07-16T19:24:34.856Z,100973.28
2018-07-16T19:27:02.153Z,100973.46
2018-07-16T19:29:29.173Z,100973.68
2018-07-16T19:31:56.170Z,100972.69
2018-07-16T19:34:23.141Z,100969.36
2018-07-16T19:36:50.160Z,100976.54
2018-07-16T19:39:17.274Z,100977.11
2018-07-16T19:41:44.213Z,100979.41
2018-07-16T19:44:11.218Z,100973.78
2018-07-16T19:46:38.229Z,100982.98
2018-07-16T19:49:05.252Z,100983.22
2018-07-16T19:51:32.229Z,100975.23
2018-07-16T19:53:59.242Z,100975.98
2018-07-16T19:56:26.342Z,100975.19
2018-07-16T19:58:53.336Z,100977.59
2018-07-16T20:01:20.413Z,100982.37
2018-07-16T20:03:47.475Z,100978.59
2018-07-16T20:06:14.485Z,100983.11
2018-07-16T20:08:41.453Z,100980.95
2018-07-16T20:11:08.585Z,100979.13
2018-07-16T20:13:35.561Z,100983.17
2018-07-16T20:16:02.554Z,100981.83
2018-07-16T20:18:29.538Z,100979.68
2018-07-16T20:20:57.747Z,100989.56
2018-07-16T20:23:24.753Z,100982.58
2018-07-16T20:25:53.333Z,100979.89
2018-07-16T20:28:20.340Z,100982.30
2018-07-16T20:30:47.541Z,100984.22
2018-07-16T20:35:35.928Z,100980.31
2018-07-16T20:38:02.897Z,100985.73
2018-07-16T20:40:29.993Z,100983.58
2018-07-16T20:42:57.017Z,100987.05
2018-07-16T20:45:24.041Z,100990.55
2018-07-16T20:47:51.121Z,100993.84
2018-07-16T20:50:18.141Z,100995.47
2018-07-16T20:52:45.199Z,101000.92
2018-07-16T20:55:12.217Z,100996.16
2018-07-16T20:57:39.429Z,100994.61
2018-07-16T21:00:06.439Z,100993.37
2018-07-16T21:02:33.637Z,100991.50
2018-07-16T21:05:00.650Z,100989.14
2018-07-16T21:07:27.662Z,100995.56
2018-07-16T21:09:54.677Z,100992.85
2018-07-16T21:12:21.725Z,100998.80
2018-07-16T21:14:48.761Z,101002.28
2018-07-16T21:17:15.956Z,101001.94
2018-07-16T21:19:42.904Z,101001.38
2018-07-16T21:22:09.901Z,101010.81
2018-07-16T21:24:36.857Z,101010.59
2018-07-16T21:27:03.877Z,101014.03
2018-07-16T21:29:30.852Z,101016.58
2018-07-16T21:31:57.828Z,101006.72
2018-07-16T21:34:24.809Z,101010.06
2018-07-16T21:36:51.809Z,101007.70
2018-07-16T21:39:18.896Z,101000.08
2018-07-16T21:41:45.936Z,101000.67
2018-07-16T21:44:12.905Z,100999.07
2018-07-16T21:46:39.941Z,100996.96
2018-07-16T21:49:06.911Z,100999.39
2018-07-16T21:51:34.009Z,101002.34
2018-07-16T21:54:00.990Z,101003.23
2018-07-16T21:56:28.164Z,101007.11
2018-07-16T21:58:55.118Z,101004.70
2018-07-16T22:01:22.123Z,101011.78
2018-07-16T22:03:49.165Z,101008.66
2018-07-16T22:06:16.133Z,101002.38
2018-07-16T22:08:43.130Z,101011.58
2018-07-16T22:11:10.118Z,101009.63
2018-07-16T22:13:37.150Z,101009.70
2018-07-16T22:16:04.184Z,101006.09
2018-07-16T22:18:33.554Z,101006.13
2018-07-16T22:21:00.550Z,101007.04
2018-07-16T22:23:27.560Z,101002.92
2018-07-16T22:25:54.611Z,101001.63
2018-07-16T22:28:21.597Z,101003.25
2018-07-16T22:30:48.723Z,101004.13
2018-07-16T22:33:15.755Z,101007.56
2018-07-16T22:35:42.741Z,101010.44
2018-07-16T22:38:09.712Z,101015.31
2018-07-16T22:40:36.717Z,101012.39
2018-07-16T22:43:03.728Z,101011.76
2018-07-16T22:45:30.761Z,101017.78
2018-07-16T22:47:57.773Z,101017.66
2018-07-16T22:50:24.750Z,101020.89
2018-07-16T22:52:51.780Z,101018.59
2018-07-16T22:55:18.777Z,101022.95
2018-07-16T22:57:45.929Z,101023.16
2018-07-16T23:00:12.938Z,101017.38
2018-07-16T23:02:40.049Z,101021.73
2018-07-16T23:05:07.045Z,101016.80
2018-07-16T23:07:34.037Z,101016.67
2018-07-16T23:10:01.085Z,101023.99
2018-07-16T23:12:28.159Z,101018.73
2018-07-16T23:14:55.124Z,101019.30
2018-07-16T23:17:22.125Z,101019.67
2018-07-16T23:19:49.245Z,101017.07
2018-07-16T23:22:16.241Z,101011.28
2018-07-16T23:24:43.209Z,101013.48
2018-07-16T23:27:10.193Z,101006.89
2018-07-16T23:29:37.241Z,101010.11
2018-07-16T23:32:04.264Z,101009.34
2018-07-16T23:34:31.277Z,101012.63
2018-07-16T23:36:58.386Z,101014.36
2018-07-16T23:39:25.393Z,101016.87
2018-07-16T23:41:52.380Z,101017.57
2018-07-16T23:44:19.365Z,101013.11
2018-07-16T23:46:46.414Z,101014.11
2018-07-16T23:49:13.429Z,101015.83
2018-07-16T23:51:40.422Z,101018.84
2018-07-16T23:54:07.437Z,101013.55
2018-07-16T23:56:34.418Z,101012.62
2018-07-16T23:59:01.442Z,101011.15
